Time;durP1;ratioP1;P1;durP2;ratioP2;P2;SDS_P1;SDS_P2;PMS_P1;PMS_P2;Temp;Humidity;BMP_temperature;BMP_pressure;BME280_temperature;BME280_humidity;BME280_pressure;Samples;Min_cycle;Max_cycle;Signal;HPM_P1;HPM_P2
2021/08/16 04:15:30;;;;;;;11.50;6.22;;;;;;;20.63;83.86;98307.63;5979739;23;20193;31
2021/08/16 04:17:56;;;;;;;7.88;5.40;;;;;;;20.60;83.80;98313.09;4878714;29;20124;-80
2021/08/16 04:20:21;;;;;;;9.23;5.85;;;;;;;20.54;84.07;98318.75;4880440;29;20174;-80
2021/08/16 04:22:47;;;;;;;9.63;5.60;;;;;;;20.40;84.63;98317.00;4880162;29;20033;-80
2021/08/16 04:25:15;;;;;;;9.68;5.80;;;;;;;20.39;85.26;98325.84;4880448;29;20021;-80
2021/08/16 04:27:41;;;;;;;15.13;6.45;;;;;;;20.39;85.54;98331.09;4880246;29;20508;-80
2021/08/16 04:30:08;;;;;;;10.98;5.70;;;;;;;20.29;86.00;98328.22;4880733;29;20056;-76
2021/08/16 04:32:33;;;;;;;10.00;6.05;;;;;;;20.39;85.53;98325.00;4886104;29;20064;-76
2021/08/16 04:34:58;;;;;;;11.63;5.85;;;;;;;20.20;86.43;98326.19;4890998;29;20052;-76
2021/08/16 04:37:24;;;;;;;10.82;6.15;;;;;;;20.24;86.59;98334.72;4898653;29;20020;-76
2021/08/16 04:39:50;;;;;;;13.35;6.38;;;;;;;20.36;85.80;98331.31;4898673;29;20438;-76
2021/08/16 04:42:15;;;;;;;8.93;5.90;;;;;;;20.23;86.55;98341.78;4898667;29;20115;-76
2021/08/16 04:44:40;;;;;;;10.70;5.95;;;;;;;20.45;86.07;98346.50;4898686;29;20500;-76
2021/08/16 04:47:05;;;;;;;9.85;7.22;;;;;;;20.46;86.06;98358.72;4898522;29;20386;-76
2021/08/16 04:49:32;;;;;;;7.95;5.93;;;;;;;20.44;86.62;98355.31;4898317;29;20490;-76
2021/08/16 04:51:57;;;;;;;12.57;6.60;;;;;;;20.66;85.62;98364.50;4879575;29;20033;-76
2021/08/16 04:54:22;;;;;;;11.57;6.57;;;;;;;20.35;87.07;98361.19;4879841;29;20040;-76
2021/08/16 04:56:48;;;;;;;10.95;6.50;;;;;;;20.50;86.05;98369.91;4879856;29;20471;-76
2021/08/16 04:59:13;;;;;;;12.82;8.18;;;;;;;20.39;85.86;98367.09;4879798;29;20608;-76
2021/08/16 05:01:38;;;;;;;16.25;6.60;;;;;;;20.48;84.82;98377.06;4879579;29;20064;-76
2021/08/16 05:04:04;;;;;;;16.55;6.70;;;;;;;20.35;85.55;98376.13;4889516;29;20077;-75
2021/08/16 05:06:32;;;;;;;15.02;7.75;;;;;;;20.24;85.72;98390.81;4897918;29;20032;-76
2021/08/16 05:09:02;;;;;;;11.63;6.38;;;;;;;20.45;84.61;98396.53;4898229;29;20116;-76
2021/08/16 05:11:28;;;;;;;9.77;6.80;;;;;;;20.62;83.88;98395.44;4898042;29;20062;-76
2021/08/16 05:13:54;;;;;;;16.33;7.50;;;;;;;20.58;84.07;98393.94;4898130;29;20068;-76
2021/08/16 05:16:20;;;;;;;10.52;7.03;;;;;;;20.65;83.55;98408.41;4897900;29;20573;-76
2021/08/16 05:18:45;;;;;;;8.80;6.68;;;;;;;20.67;83.52;98406.53;4898116;29;20029;-76
2021/08/16 05:21:10;;;;;;;16.40;6.68;;;;;;;20.81;83.27;98405.63;4884590;29;20036;-76
2021/08/16 05:23:36;;;;;;;12.02;6.85;;;;;;;20.89;82.27;98407.75;4878638;29;20029;-75
2021/08/16 05:26:01;;;;;;;10.23;6.72;;;;;;;20.90;82.49;98414.72;4879063;29;20036;-76
2021/08/16 05:28:28;;;;;;;15.82;6.85;;;;;;;20.86;82.82;98429.03;4879165;29;20077;-76
2021/08/16 05:30:54;;;;;;;16.38;6.47;;;;;;;20.76;82.66;98419.09;4879075;29;20037;-75
2021/08/16 05:33:19;;;;;;;14.20;6.30;;;;;;;20.68;82.87;98424.00;4886617;29;20118;-76
2021/08/16 05:35:44;;;;;;;12.13;6.47;;;;;;;20.71;82.73;98426.44;4894179;29;20032;-76
2021/08/16 05:38:09;;;;;;;8.68;5.75;;;;;;;20.68;82.08;98429.25;4897638;29;20036;-76
2021/08/16 05:40:35;;;;;;;11.15;5.93;;;;;;;20.63;81.96;98433.97;4897738;29;20039;-75
2021/08/16 05:43:00;;;;;;;14.95;6.57;;;;;;;20.67;82.30;98451.28;4897446;29;20076;-76
2021/08/16 05:45:26;;;;;;;15.50;6.70;;;;;;;20.66;82.09;98444.34;4897574;29;20032;-76
2021/08/16 05:47:51;;;;;;;8.80;6.30;;;;;;;20.70;82.34;98461.63;4897911;29;20029;-76
2021/08/16 05:50:16;;;;;;;11.98;6.97;;;;;;;20.66;82.48;98449.59;4891408;29;20095;-76
2021/08/16 05:52:42;;;;;;;12.57;6.13;;;;;;;20.59;82.73;98460.59;4878825;29;20498;-76
2021/08/16 05:55:08;;;;;;;13.63;5.88;;;;;;;20.58;82.52;98474.72;4878717;29;20516;-76
2021/08/16 05:57:34;;;;;;;9.18;6.47;;;;;;;20.60;82.04;98470.19;4878815;29;20048;-76
2021/08/16 05:59:59;;;;;;;13.43;5.82;;;;;;;20.52;82.33;98474.16;4878666;29;20471;-76
2021/08/16 06:02:25;;;;;;;10.82;5.90;;;;;;;20.59;82.05;98477.25;4883381;29;20032;-76
2021/08/16 06:04:50;;;;;;;12.75;6.43;;;;;;;20.54;82.62;98481.97;4889379;29;20035;-76
2021/08/16 06:07:16;;;;;;;13.05;6.05;;;;;;;20.52;82.65;98483.84;4897115;29;20028;-76
2021/08/16 06:09:41;;;;;;;9.93;5.90;;;;;;;20.47;82.33;98485.94;4897427;29;20044;-76
2021/08/16 06:12:07;;;;;;;12.18;6.60;;;;;;;20.41;82.46;98489.75;4897097;29;20442;-76
2021/08/16 06:14:33;;;;;;;9.07;6.15;;;;;;;20.49;82.23;98492.78;4897187;29;20025;-76
2021/08/16 06:16:58;;;;;;;18.65;6.20;;;;;;;20.51;82.19;98493.53;4896999;29;20490;-76
2021/08/16 06:19:24;;;;;;;8.40;5.95;;;;;;;20.52;82.21;98499.66;4896962;29;20040;-76
2021/08/16 06:21:49;;;;;;;8.18;5.82;;;;;;;20.52;82.15;98491.75;4878932;29;20093;-76
2021/08/16 06:24:14;;;;;;;8.63;5.28;;;;;;;20.78;80.90;98496.19;4878380;29;20483;-75
2021/08/16 06:26:40;;;;;;;13.18;5.80;;;;;;;20.83;80.45;98495.06;4877052;29;20336;-75
2021/08/16 06:29:06;;;;;;;10.00;5.40;;;;;;;21.30;78.21;98495.47;4878271;29;20025;-75
2021/08/16 06:31:31;;;;;;;9.90;5.57;;;;;;;21.36;77.24;98503.91;4878162;29;20036;-75
2021/08/16 06:33:57;;;;;;;14.80;6.18;;;;;;;21.20;76.50;98502.25;4878069;29;20025;-79
2021/08/16 06:36:22;;;;;;;12.13;5.05;;;;;;;21.16;75.71;98506.03;4878114;29;20037;-79
2021/08/16 06:38:48;;;;;;;6.85;5.28;;;;;;;21.16;74.58;98510.47;4873299;29;20018;-79
2021/08/16 06:41:15;;;;;;;7.47;5.13;;;;;;;21.59;72.63;98508.50;4875338;29;20475;-79
2021/08/16 06:43:42;;;;;;;7.97;4.40;;;;;;;21.47;71.75;98519.88;4878053;29;20025;-79
2021/08/16 06:46:07;;;;;;;9.00;4.72;;;;;;;21.43;72.35;98523.66;4877911;29;20080;-79
2021/08/16 06:48:33;;;;;;;8.57;4.40;;;;;;;21.13;71.68;98522.06;4877395;29;20104;-79
2021/08/16 06:50:58;;;;;;;7.15;4.30;;;;;;;20.93;69.81;98530.38;4877632;29;20037;-79
2021/08/16 06:53:23;;;;;;;8.13;3.95;;;;;;;21.20;70.04;98533.88;4877807;29;20096;-79
2021/08/16 06:55:50;;;;;;;7.75;4.55;;;;;;;21.44;68.98;98541.16;4878018;29;20021;-79
2021/08/16 06:58:16;;;;;;;10.63;4.20;;;;;;;21.88;67.84;98535.53;4878010;29;20495;-79
2021/08/16 07:00:43;;;;;;;5.68;4.07;;;;;;;22.77;63.87;98537.25;4877045;29;20115;-79
2021/08/16 07:03:09;;;;;;;6.65;3.83;;;;;;;24.21;58.89;98535.34;4885282;29;20057;-79
2021/08/16 07:05:35;;;;;;;7.40;3.80;;;;;;;24.48;56.56;98536.81;4891895;29;20032;-79
2021/08/16 07:08:00;;;;;;;6.55;3.45;;;;;;;23.05;60.53;98547.56;4896414;29;20068;-79
2021/08/16 07:10:26;;;;;;;4.63;3.63;;;;;;;22.57;62.68;98543.97;4896671;29;20131;-79
2021/08/16 07:12:51;;;;;;;7.60;3.47;;;;;;;22.29;63.37;98534.53;4895526;29;20028;-79
2021/08/16 07:15:16;;;;;;;7.18;3.80;;;;;;;22.76;62.15;98546.97;4896135;29;20398;-79
2021/08/16 07:17:42;;;;;;;4.72;3.65;;;;;;;23.93;57.36;98546.34;4896576;29;20072;-79
2021/08/16 07:20:09;;;;;;;14.50;3.92;;;;;;;23.21;60.04;98544.66;4891433;29;20048;-79
2021/08/16 07:22:35;;;;;;;6.82;3.67;;;;;;;22.89;61.03;98543.50;4877550;29;20033;-79
2021/08/16 07:25:00;;;;;;;6.43;3.25;;;;;;;23.05;59.80;98541.44;4890366;29;20036;-79
2021/08/16 07:27:25;;;;;;;9.88;4.07;;;;;;;23.31;58.91;98543.03;4896268;29;20033;-80
2021/08/16 07:29:51;;;;;;;9.32;3.85;;;;;;;22.98;59.71;98553.41;4896416;29;20111;-77
2021/08/16 07:32:16;;;;;;;7.63;3.80;;;;;;;22.65;60.25;98552.19;4888562;29;20036;-77
2021/08/16 07:34:41;;;;;;;8.15;4.13;;;;;;;22.05;62.33;98555.50;4887793;29;20389;-77
2021/08/16 07:37:08;;;;;;;6.55;4.07;;;;;;;21.83;63.28;98557.91;4895912;29;20494;-77
2021/08/16 07:39:34;;;;;;;6.68;3.90;;;;;;;21.57;63.81;98555.22;4896189;29;20098;-77
2021/08/16 07:42:00;;;;;;;6.00;3.72;;;;;;;21.31;64.98;98556.94;4896063;29;20063;-77
2021/08/16 07:44:25;;;;;;;4.93;3.47;;;;;;;21.32;65.46;98557.75;4896230;29;20041;-77
2021/08/16 07:46:51;;;;;;;5.85;4.00;;;;;;;21.45;65.08;98558.66;4890710;29;20075;-77
2021/08/16 07:49:16;;;;;;;6.60;3.92;;;;;;;21.30;66.05;98560.47;4890297;29;20398;-77
2021/08/16 07:51:41;;;;;;;7.35;3.83;;;;;;;21.27;65.45;98553.63;4896639;29;20056;-77
2021/08/16 07:54:07;;;;;;;7.90;3.47;;;;;;;21.35;64.63;98554.94;4880774;29;20029;-78
2021/08/16 07:56:32;;;;;;;12.77;4.50;;;;;;;21.38;65.10;98562.66;4880745;29;20033;-77
2021/08/16 07:58:57;;;;;;;6.45;3.50;;;;;;;21.68;63.99;98552.72;4880140;29;20435;-77
2021/08/16 08:01:23;;;;;;;8.38;3.80;;;;;;;22.04;63.44;98545.88;4880302;29;20029;-77
2021/08/16 08:03:49;;;;;;;7.32;3.28;;;;;;;22.12;63.50;98543.59;4887924;29;20084;-77
2021/08/16 08:06:14;;;;;;;9.07;3.38;;;;;;;21.32;65.66;98549.84;4887625;29;20100;-77
2021/08/16 08:08:39;;;;;;;10.35;3.78;;;;;;;21.97;64.06;98555.19;4880131;29;20040;-77
2021/08/16 08:11:05;;;;;;;10.82;3.65;;;;;;;22.20;62.25;98557.13;4879807;29;20041;-77
2021/08/16 08:13:30;;;;;;;4.97;3.53;;;;;;;22.45;62.61;98552.78;4880370;29;20029;-77
2021/08/16 08:15:56;;;;;;;7.97;3.67;;;;;;;22.58;61.60;98557.09;4880296;29;20479;-78
2021/08/16 08:18:21;;;;;;;6.10;3.40;;;;;;;22.85;61.37;98558.69;4880158;29;20104;-78
2021/08/16 08:20:47;;;;;;;4.72;3.20;;;;;;;23.37;59.52;98548.81;4879525;29;20479;-78
2021/08/16 08:23:12;;;;;;;9.40;3.47;;;;;;;23.83;57.15;98559.44;4879989;29;20044;-78
2021/08/16 08:25:40;;;;;;;6.95;3.28;;;;;;;24.33;55.84;98560.88;4880106;29;20105;-76
2021/08/16 08:28:11;;;;;;;7.53;2.95;;;;;;;23.27;56.22;98561.88;4880019;29;20017;-78
2021/08/16 08:30:40;;;;;;;5.45;3.08;;;;;;;23.17;56.06;98560.84;4879966;29;20494;-78
2021/08/16 08:33:05;;;;;;;5.07;3.08;;;;;;;23.24;56.17;98557.63;4886489;29;20028;-78
2021/08/16 08:35:30;;;;;;;7.07;3.72;;;;;;;23.41;55.18;98555.56;4893313;29;20031;-78
2021/08/16 08:37:56;;;;;;;12.45;3.35;;;;;;;23.48;55.16;98551.50;4898687;29;20025;-78
2021/08/16 08:40:21;;;;;;;6.30;3.50;;;;;;;22.93;56.19;98552.91;4898479;29;20028;-78
2021/08/16 08:42:53;;;;;;;8.07;3.83;;;;;;;23.38;53.84;98550.50;4898284;29;20459;-78
2021/08/16 08:45:23;;;;;;;6.38;2.97;;;;;;;23.58;54.21;98557.78;4897688;29;20028;-78
2021/08/16 08:47:49;;;;;;;8.07;3.28;;;;;;;24.25;52.69;98546.53;4898345;29;20024;-78
2021/08/16 08:50:15;;;;;;;6.97;3.22;;;;;;;25.54;49.15;98545.03;4881887;29;20383;-78
2021/08/16 08:52:44;;;;;;;3.85;3.13;;;;;;;27.15;45.69;98545.31;4903305;29;20437;-78
2021/08/16 08:55:11;;;;;;;6.43;3.88;;;;;;;29.37;40.07;98541.19;4898026;29;20016;-78
2021/08/16 08:57:37;;;;;;;8.73;3.92;;;;;;;31.01;36.61;98532.41;4902573;29;20533;-75
2021/08/16 09:00:05;;;;;;;5.60;3.28;;;;;;;30.59;37.23;98540.41;4915692;29;20051;-75
2021/08/16 09:02:30;;;;;;;10.82;3.88;;;;;;;29.13;38.05;98535.59;4914634;29;20020;-75
2021/08/16 09:04:57;;;;;;;10.73;3.72;;;;;;;29.63;37.66;98529.75;4909016;29;20024;-75
2021/08/16 09:07:36;;;;;;;7.72;3.95;;;;;;;27.73;41.15;98532.03;4915890;29;20028;-75
2021/08/16 09:10:05;;;;;;;7.97;3.63;;;;;;;27.27;43.79;98533.56;4916864;29;20020;-75
2021/08/16 09:12:35;;;;;;;7.75;3.85;;;;;;;25.71;45.82;98544.44;4916784;29;20075;-75
2021/08/16 09:15:02;;;;;;;8.18;4.43;;;;;;;24.68;48.56;98549.34;4916814;29;20517;-75
2021/08/16 09:17:32;;;;;;;6.88;3.70;;;;;;;24.61;49.10;98545.47;4916078;29;20028;-75
2021/08/16 09:19:57;;;;;;;;;;;;;;;26.19;45.49;98533.31;4913169;29;20024;-75
2021/08/16 09:22:33;;;;;;;8.85;3.92;;;;;;;25.29;47.66;98544.41;4897581;29;19911;-75
2021/08/16 09:25:03;;;;;;;8.55;3.67;;;;;;;25.42;48.56;98544.22;4897778;29;20029;-74
2021/08/16 09:27:28;;;;;;;;;;;;;;;25.26;48.18;98542.00;4897898;29;20100;-75
2021/08/16 09:29:53;;;;;;;7.10;4.03;;;;;;;25.66;47.45;98546.66;4902433;29;20005;-77
2021/08/16 09:32:30;;;;;;;8.57;4.50;;;;;;;23.92;51.52;98555.25;4902015;29;20092;-78
2021/08/16 09:34:55;;;;;;;10.13;3.65;;;;;;;24.09;51.04;98546.88;4908595;29;20055;-78
2021/08/16 09:37:26;;;;;;;9.68;4.53;;;;;;;24.06;52.30;98552.41;4916251;29;20497;-78
2021/08/16 09:40:14;;;;;;;10.90;4.28;;;;;;;23.40;51.33;98549.41;4916503;29;20032;-78
2021/08/16 09:42:48;;;;;;;6.68;4.25;;;;;;;22.81;53.32;98552.78;4914337;29;20031;-78
2021/08/16 09:45:27;;;;;;;6.88;3.65;;;;;;;23.51;51.42;98551.28;4916010;29;20028;-78
2021/08/16 09:47:56;;;;;;;8.02;4.18;;;;;;;23.13;52.36;98543.53;4916226;29;20040;-78
2021/08/16 09:50:22;;;;;;;9.68;4.15;;;;;;;22.81;52.23;98539.56;4909202;29;20511;-78
2021/08/16 09:52:48;;;;;;;10.52;4.70;;;;;;;23.03;53.06;98546.00;4896338;29;20036;-78
2021/08/16 09:55:13;;;;;;;9.50;4.13;;;;;;;23.12;53.16;98540.03;4897753;29;20033;-80
2021/08/16 09:57:40;;;;;;;7.22;4.18;;;;;;;23.04;52.17;98534.47;4905672;29;20068;-80
2021/08/16 10:00:06;;;;;;;8.68;4.97;;;;;;;22.96;53.23;98535.00;4907272;29;20031;-76
2021/08/16 10:02:32;;;;;;;7.82;3.78;;;;;;;22.55;54.19;98536.16;4913723;29;20032;-76
2021/08/16 10:04:58;;;;;;;7.15;4.22;;;;;;;22.56;55.76;98539.63;4903751;29;20032;-76
2021/08/16 10:07:30;;;;;;;13.23;5.22;;;;;;;22.56;55.70;98531.72;4905356;29;20390;-76
2021/08/16 10:09:59;;;;;;;9.50;3.97;;;;;;;22.36;56.53;98534.94;4915552;29;20019;-76
2021/08/16 10:12:25;;;;;;;;;;;;;;;22.31;55.79;98530.81;4916182;29;20023;-76
2021/08/16 10:14:51;;;;;;;7.22;4.88;;;;;;;22.11;55.71;98534.00;4915345;29;20001;-76
2021/08/16 10:17:21;;;;;;;12.77;4.00;;;;;;;22.09;55.99;98535.84;4915170;29;20024;-76
2021/08/16 10:19:50;;;;;;;11.95;3.90;;;;;;;23.11;52.71;98535.69;4913587;29;20082;-76
2021/08/16 10:22:15;;;;;;;9.05;4.55;;;;;;;23.46;51.75;98529.63;4896907;29;20161;-76
2021/08/16 10:24:41;;;;;;;7.20;3.90;;;;;;;23.55;51.62;98531.56;4896907;29;20504;-76
2021/08/16 10:27:09;;;;;;;11.30;3.58;;;;;;;22.54;52.74;98536.28;4900691;29;20573;-76
2021/08/16 10:29:36;;;;;;;9.63;3.97;;;;;;;22.64;53.68;98534.66;4934690;23;20040;-75
2021/08/16 10:32:02;;;;;;;10.82;3.40;;;;;;;22.91;52.81;98531.03;4913080;29;20025;-76
2021/08/16 10:34:38;;;;;;;12.30;4.00;;;;;;;22.81;51.60;98528.16;4908912;29;20024;-76
2021/08/16 10:37:08;;;;;;;9.05;3.55;;;;;;;22.69;53.08;98523.78;4915734;29;20035;-76
2021/08/16 10:39:43;;;;;;;9.20;3.67;;;;;;;22.62;53.58;98536.56;4915264;29;20495;-75
2021/08/16 10:42:19;;;;;;;6.45;3.55;;;;;;;22.62;53.16;98523.34;4914473;29;20083;-75
2021/08/16 10:44:50;;;;;;;10.05;3.30;;;;;;;22.33;53.36;98526.25;4915722;29;20170;-70
2021/08/16 10:47:25;;;;;;;7.72;3.40;;;;;;;22.46;54.24;98520.13;4915476;29;20035;-71
2021/08/16 10:50:12;;;;;;;6.20;3.10;;;;;;;22.13;53.76;98526.81;4914311;29;20396;-70
2021/08/16 10:52:39;;;;;;;5.07;3.25;;;;;;;22.12;55.42;98522.47;4915548;29;20063;-70
2021/08/16 10:55:24;;;;;;;10.70;3.80;;;;;;;22.34;54.84;98516.56;4913469;29;20626;-71
2021/08/16 10:57:51;;;;;;;8.32;3.35;;;;;;;22.42;54.82;98521.28;4913559;29;20024;-71
2021/08/16 11:00:17;;;;;;;5.78;3.50;;;;;;;22.24;55.05;98529.56;4913894;29;20482;-72
2021/08/16 11:02:43;;;;;;;8.18;3.65;;;;;;;22.69;54.13;98524.63;4914277;29;20024;-73
2021/08/16 11:05:14;;;;;;;7.63;3.13;;;;;;;22.71;53.35;98527.13;4915405;29;20111;-79
2021/08/16 11:07:40;;;;;;;9.65;3.70;;;;;;;22.99;53.24;98520.75;4912597;29;20024;-79
2021/08/16 11:10:08;;;;;;;6.88;3.13;;;;;;;22.80;51.52;98519.41;4904423;29;20393;-78
2021/08/16 11:12:34;;;;;;;8.77;3.13;;;;;;;22.56;51.89;98531.72;4932599;29;20024;-79
2021/08/16 11:15:00;;;;;;;8.50;3.75;;;;;;;22.71;51.46;98525.34;4911105;29;20094;-79
2021/08/16 11:17:30;;;;;;;8.70;3.15;;;;;;;22.06;52.44;98533.44;4910363;29;20057;-79
2021/08/16 11:20:00;;;;;;;12.25;3.63;;;;;;;21.73;53.17;98524.22;4915797;29;20516;-79
2021/08/16 11:22:27;;;;;;;9.43;3.53;;;;;;;21.79;52.89;98525.59;4903594;29;20033;-71
2021/08/16 11:24:53;;;;;;;7.50;3.53;;;;;;;22.01;53.29;98519.72;4915386;29;20111;-71
2021/08/16 11:27:24;;;;;;;9.45;3.47;;;;;;;22.68;51.67;98520.28;4915078;29;20075;-71
2021/08/16 11:29:58;;;;;;;6.53;3.47;;;;;;;22.63;50.52;98514.50;4910519;29;20027;-71
2021/08/16 11:32:25;;;;;;;7.35;3.03;;;;;;;22.92;50.08;98516.84;4924658;29;20028;-75
2021/08/16 11:34:55;;;;;;;5.28;3.10;;;;;;;23.25;49.10;98514.38;4913092;29;20043;-75
2021/08/16 11:37:26;;;;;;;10.85;3.92;;;;;;;22.92;50.48;98511.56;4907019;29;20083;-76
2021/08/16 11:39:53;;;;;;;5.95;3.15;;;;;;;22.54;51.13;98501.94;4907237;29;20052;-75
2021/08/16 11:42:20;;;;;;;7.68;3.22;;;;;;;22.41;51.67;98501.97;4907199;29;20083;-73
2021/08/16 11:45:18;;;;;;;10.68;3.30;;;;;;;22.23;50.82;98509.38;4909214;29;20429;-72
2021/08/16 11:47:50;;;;;;;11.07;2.92;;;;;;;22.02;51.96;98506.41;4894293;29;20051;-73
2021/08/16 11:50:19;;;;;;;5.78;2.83;;;;;;;22.21;51.53;98500.72;4907303;29;20035;-73
2021/08/16 11:52:45;;;;;;;4.90;3.00;;;;;;;22.20;51.95;98504.31;4903959;29;20115;-72
2021/08/16 11:55:11;;;;;;;6.43;2.95;;;;;;;22.35;52.33;98493.66;4910010;29;20135;-72
2021/08/16 11:57:37;;;;;;;10.02;3.72;;;;;;;23.02;50.03;98491.47;4905840;29;20517;-71
2021/08/16 12:00:07;;;;;;;7.50;3.28;;;;;;;24.54;46.79;98483.34;4906979;29;20032;-72
2021/08/16 12:02:39;;;;;;;4.70;3.35;;;;;;;26.65;43.03;98486.84;4895763;29;20093;-79
2021/08/16 12:05:06;;;;;;;7.00;3.55;;;;;;;27.18;40.76;98478.53;4896122;29;20114;-76
2021/08/16 12:07:32;;;;;;;5.45;2.80;;;;;;;27.21;40.95;98469.41;4910085;29;20051;-76
2021/08/16 12:09:58;;;;;;;5.47;2.83;;;;;;;26.18;42.83;98483.84;4895160;29;20036;-76
2021/08/16 12:12:25;;;;;;;5.20;2.78;;;;;;;25.65;43.25;98483.94;4886657;29;20027;-76
2021/08/16 12:15:00;;;;;;;12.05;2.80;;;;;;;25.44;43.55;98485.75;4886383;29;20119;-76
2021/08/16 12:17:25;;;;;;;8.77;4.07;;;;;;;24.31;46.02;98496.56;4880171;29;20033;-75
2021/08/16 12:20:04;;;;;;;6.80;2.92;;;;;;;24.23;46.25;98485.75;4878666;29;20035;-76
2021/08/16 12:22:30;;;;;;;8.93;2.95;;;;;;;23.52;48.00;98492.13;4877271;29;20025;-76
2021/08/16 12:25:01;;;;;;;7.03;3.28;;;;;;;23.38;48.78;98481.75;4872997;29;20508;-76
2021/08/16 12:27:27;;;;;;;6.50;3.15;;;;;;;23.63;47.53;98460.41;4873545;29;20039;-76
2021/08/16 12:29:53;;;;;;;5.60;2.95;;;;;;;23.51;48.80;98466.63;4876163;29;20032;-71
2021/08/16 12:32:21;;;;;;;8.05;2.97;;;;;;;22.98;49.07;98474.13;4886209;29;20120;-72
2021/08/16 12:34:47;;;;;;;8.05;2.97;;;;;;;23.30;49.38;98475.22;4885624;29;20376;-71
2021/08/16 12:37:25;;;;;;;4.93;2.97;;;;;;;23.02;49.17;98475.59;4914939;29;20028;-76
2021/08/16 12:39:50;;;;;;;7.43;3.42;;;;;;;23.77;48.57;98476.09;4889116;29;20056;-76
2021/08/16 12:42:16;;;;;;;4.82;3.20;;;;;;;22.70;49.69;98486.69;4894811;29;20032;-76
2021/08/16 12:44:53;;;;;;;5.03;2.80;;;;;;;23.38;49.03;98484.38;4895670;29;20032;-76
2021/08/16 12:47:28;;;;;;;9.10;3.00;;;;;;;23.58;47.33;98479.25;4899769;29;20573;-76
2021/08/16 12:49:54;;;;;;;6.43;2.85;;;;;;;24.06;47.28;98479.13;4907188;29;20419;-76
2021/08/16 12:52:20;;;;;;;7.53;2.83;;;;;;;23.85;47.14;98486.94;4913842;29;20481;-75
2021/08/16 12:54:45;;;;;;;9.93;4.97;;;;;;;23.49;48.66;98489.69;4912148;29;20087;-75
2021/08/16 12:57:10;;;;;;;11.95;3.35;;;;;;;22.87;50.03;98500.44;4913952;29;20024;-76
2021/08/16 12:59:35;;;;;;;8.85;3.30;;;;;;;22.46;50.41;98489.28;4909332;29;20024;-72
2021/08/16 13:02:01;;;;;;;5.50;2.72;;;;;;;22.11;52.30;98489.13;4908349;29;20044;-72
2021/08/16 13:04:27;;;;;;;4.95;3.30;;;;;;;22.12;52.28;98488.19;4906258;29;20026;-76
2021/08/16 13:06:52;;;;;;;7.93;3.05;;;;;;;22.58;51.10;98480.50;4911894;29;20038;-79
2021/08/16 13:09:18;;;;;;;8.40;3.38;;;;;;;22.34;52.10;98484.88;4912295;29;20481;-72
2021/08/16 13:11:43;;;;;;;9.88;3.40;;;;;;;22.70;51.34;98486.69;4909820;29;20031;-72
2021/08/16 13:14:09;;;;;;;10.75;3.15;;;;;;;23.08;49.75;98475.13;4913606;29;20016;-78
2021/08/16 13:16:34;;;;;;;7.07;3.28;;;;;;;23.46;48.67;98479.38;4911752;29;20032;-80
2021/08/16 13:18:59;;;;;;;10.07;4.00;;;;;;;23.49;47.87;98490.53;4910836;29;20048;-79
2021/08/16 13:21:25;;;;;;;6.05;3.20;;;;;;;23.58;47.32;98481.06;4912758;29;20028;-79
2021/08/16 13:23:50;;;;;;;7.72;3.05;;;;;;;23.68;47.20;98482.09;4914165;29;20103;-75
2021/08/16 13:26:15;;;;;;;6.25;3.53;;;;;;;23.73;47.05;98472.00;4899118;29;20028;-76
2021/08/16 13:28:41;;;;;;;7.60;3.58;;;;;;;23.46;47.48;98474.09;4866469;29;20059;-76
2021/08/16 13:31:06;;;;;;;9.45;3.40;;;;;;;23.55;47.36;98474.22;4915634;29;20035;-76
2021/08/16 13:33:31;;;;;;;7.78;3.33;;;;;;;23.08;47.62;98469.84;4914061;29;20023;-76
2021/08/16 13:35:57;;;;;;;6.28;3.38;;;;;;;23.02;48.38;98478.25;4916713;29;20027;-76
2021/08/16 13:38:22;;;;;;;18.77;3.63;;;;;;;22.36;50.12;98479.47;4916690;29;20031;-76
2021/08/16 13:40:48;;;;;;;12.50;3.80;;;;;;;22.39;50.96;98487.19;4916724;29;20020;-76
2021/08/16 13:43:13;;;;;;;10.43;3.20;;;;;;;22.33;50.91;98473.44;4915571;29;20102;-76
2021/08/16 13:45:38;;;;;;;12.18;4.03;;;;;;;22.80;49.76;98474.47;4915726;29;20035;-76
2021/08/16 13:48:04;;;;;;;10.90;4.00;;;;;;;22.87;48.67;98471.38;4916283;29;20474;-76
2021/08/16 13:50:29;;;;;;;7.68;3.85;;;;;;;22.78;47.13;98473.75;4916407;29;20035;-79
2021/08/16 13:52:57;;;;;;;6.60;3.72;;;;;;;22.94;47.74;98468.22;4916072;29;20024;-80
2021/08/16 13:55:23;;;;;;;4.60;2.95;;;;;;;22.76;43.71;98456.31;4915566;29;20456;-79
2021/08/16 13:57:48;;;;;;;8.02;3.50;;;;;;;22.97;43.70;98457.44;4916497;29;20024;-79
2021/08/16 14:00:14;;;;;;;8.30;3.70;;;;;;;22.77;43.03;98453.59;4916091;29;20024;-76
2021/08/16 14:02:39;;;;;;;11.43;5.05;;;;;;;23.21;41.31;98470.63;4913477;29;20099;-71
2021/08/16 14:05:05;;;;;;;9.38;3.67;;;;;;;23.69;42.00;98470.56;4915378;29;20040;-76
2021/08/16 14:07:30;;;;;;;6.70;3.45;;;;;;;23.77;40.20;98473.44;4915681;29;20207;-71
2021/08/16 14:09:55;;;;;;;7.60;3.33;;;;;;;23.76;39.76;98492.09;4915913;29;20382;-75
2021/08/16 14:12:21;;;;;;;8.32;4.35;;;;;;;24.03;39.14;98483.81;4930397;29;20097;-76
2021/08/16 14:14:46;;;;;;;10.35;5.13;;;;;;;24.33;38.32;98460.22;4916107;29;20024;-79
2021/08/16 14:17:12;;;;;;;14.02;2.97;;;;;;;24.21;38.15;98479.72;4915063;29;20024;-71
2021/08/16 14:19:38;;;;;;;3.92;2.53;;;;;;;24.10;39.10;98480.56;4915821;29;20439;-72
2021/08/16 14:22:04;;;;;;;8.25;3.72;;;;;;;24.59;38.98;98465.28;4915728;29;20031;-72
2021/08/16 14:24:30;;;;;;;9.05;3.35;;;;;;;24.42;37.57;98463.13;4915758;29;20482;-76
2021/08/16 14:26:55;;;;;;;5.18;2.95;;;;;;;24.16;38.64;98468.66;4915551;29;20036;-72
2021/08/16 14:29:21;;;;;;;5.57;3.10;;;;;;;24.12;39.20;98472.50;4914565;29;20032;-76
2021/08/16 14:31:46;;;;;;;6.28;2.90;;;;;;;24.26;38.66;98453.72;4913188;29;20032;-79
2021/08/16 14:34:11;;;;;;;4.25;3.15;;;;;;;24.40;37.69;98442.06;4907810;29;20024;-71
2021/08/16 14:36:37;;;;;;;5.85;3.53;;;;;;;24.60;38.27;98451.06;4915691;29;20036;-71
2021/08/16 14:39:02;;;;;;;7.50;2.90;;;;;;;24.76;38.90;98466.59;4915420;29;20027;-79
2021/08/16 14:41:28;;;;;;;19.27;12.82;;;;;;;24.71;38.37;98468.72;4914945;29;20020;-79
2021/08/16 14:43:54;;;;;;;7.10;3.17;;;;;;;24.93;39.01;98468.69;4916016;29;20027;-79
2021/08/16 14:46:19;;;;;;;7.28;3.33;;;;;;;24.53;39.34;98471.06;4915628;29;20389;-72
2021/08/16 14:48:44;;;;;;;5.43;3.33;;;;;;;24.67;40.17;98484.06;4915438;29;20104;-79
2021/08/16 14:51:10;;;;;;;5.85;2.47;;;;;;;24.61;39.56;98481.88;4915570;29;20442;-74
2021/08/16 14:53:35;;;;;;;6.00;2.95;;;;;;;24.27;40.47;98497.81;4915200;29;20363;-71
2021/08/16 14:56:01;;;;;;;5.97;2.85;;;;;;;23.96;40.57;98498.50;4917076;29;20537;-72
2021/08/16 14:58:26;;;;;;;10.27;3.58;;;;;;;23.72;41.80;98511.81;4919218;29;20024;-76
2021/08/16 15:00:52;;;;;;;8.27;3.28;;;;;;;23.68;42.22;98511.19;4918282;29;20024;-70
2021/08/16 15:03:17;;;;;;;6.40;3.13;;;;;;;23.52;42.17;98510.63;4918112;29;20397;-71
2021/08/16 15:05:43;;;;;;;5.22;2.72;;;;;;;23.10;43.61;98504.94;4919178;29;20020;-71
2021/08/16 15:08:09;;;;;;;9.85;2.90;;;;;;;22.65;44.46;98515.22;4919086;29;20023;-72
2021/08/16 15:10:34;;;;;;;5.90;2.60;;;;;;;22.36;46.14;98519.09;4919070;29;20031;-72
2021/08/16 15:12:59;;;;;;;7.50;3.33;;;;;;;22.42;46.57;98519.50;4918996;29;20028;-79
2021/08/16 15:15:25;;;;;;;8.00;2.70;;;;;;;23.05;45.33;98513.19;4916972;29;20032;-78
2021/08/16 15:17:51;;;;;;;9.07;3.35;;;;;;;23.39;45.54;98509.88;4919086;29;20016;-80
2021/08/16 15:20:17;;;;;;;10.30;2.70;;;;;;;23.30;45.35;98517.50;4919056;29;20047;-79
2021/08/16 15:22:42;;;;;;;8.07;4.25;;;;;;;23.58;44.86;98521.59;4918859;29;20057;-73
2021/08/16 15:25:14;;;;;;;12.75;2.85;;;;;;;23.51;45.61;98522.19;4918510;29;20032;-72
2021/08/16 15:27:39;;;;;;;6.50;2.78;;;;;;;23.28;44.04;98519.44;4918533;29;20116;-72
2021/08/16 15:30:06;;;;;;;7.50;2.70;;;;;;;23.49;44.34;98524.06;4918631;29;20119;-76
2021/08/16 15:32:32;;;;;;;11.95;2.85;;;;;;;23.75;43.05;98525.66;4916203;29;20103;-78
2021/08/16 15:34:57;;;;;;;7.80;2.78;;;;;;;23.56;43.06;98527.97;4918617;29;20474;-72
2021/08/16 15:37:22;;;;;;;9.55;2.83;;;;;;;23.85;42.01;98525.78;4917903;29;20417;-71
2021/08/16 15:39:48;;;;;;;5.43;2.72;;;;;;;23.54;41.76;98524.56;4918301;29;20028;-71
2021/08/16 15:42:15;;;;;;;6.63;2.70;;;;;;;23.38;41.97;98529.34;4918526;29;20450;-76
2021/08/16 15:44:41;;;;;;;8.13;2.30;;;;;;;22.97;42.14;98535.88;4915391;29;20035;-76